Aeroporto :
LOGIN :

Iscrizione | Disclaimer

   EN    FR    IT 

 










Sommario :    VFR   VFR Marginale   IFR   IFR Intensivo   IFR Molto Intensivo
Visibilità : 
Base nubi : 
>= 8 km
>= 3000ft
5 / 8 km
1000 / 3000 ft
1500m / 5 km
500 / 1000 ft
800 / 1500m
200 / 500 ft
< 800m
< 200 ft
Simboli :   Temporali  Nebbia  Neve Forte  Precipitazioni Forti  Vento > 20 kt
SIGMETs :   Varie  Temporali  Ghiacco  Turbolenza  Onda orograficha  Ceneri Vulcaniche






- Altitudine del aeroporto : 458 ft


LFSI - St-Dizier

ULTIMO METAR :
  • 220500Z AUTO VRB02KT 9999 BKN018 OVC100 17/16 Q1011

METARs OBSOLETI :
  • 220430Z AUTO 05002KT 9999 OVC020 16/15 Q1010
  • 220400Z AUTO 00000KT 9999 OVC015/// ///TCU 16/16 Q1010
  • 220330Z AUTO 30002KT 9999 OVC012/// ///CB 16/15 Q1010
  • 220300Z AUTO 29004KT 9000 -RA OVC006/// ///TCU 16/16 Q1010
  • 220230Z AUTO VRB02KT 8000 -RA BKN007/// BKN016/// OVC074/// ///CB 17/16 Q1010

TAF TAF LFSI
Valido dal 22 a 03 ore il 23 a 03 ore UTC


220200Z 2203/2303 VRB03KT 9999 SCT040
TEMPO 2205/2212 4000 SHRA BKN010 BKN015TCU
TEMPO 2212/2218 4000 SHRA BKN030CB
PROB40
TEMPO 2214/2218 2000 TSRA BKN020 BKN030CB



MetMap, La meteo Aeronautica in un colpo d'occhio ! - Copyright ORBIFLY Dicembre 2007 - Disclaimer

ORBIFLY MET'MAP TEAM :

Programmazione e sviluppo : Alexandra Zaïnal
Concezione : Baudouin d'Aumeries
Aiuto per la programmazione : Marc-Olivier Méhu
Supporto tecnico e logistico : Manuel Goepfert
Aiuto per la traduzione : Arnaldo La Scala

Contatto : metmap@orbifly.com




FONTI E CREDITI :

   NOAA